Detall de PIREP

Printer-friendly versionPDF version

[2014/07/20 15:00:00]
Flight IATA:CT1004
Pilot Number:012
Company ICAO:CAT
Aircraft Type:MD11/E
PAX:240
Aircraft Registration:PAX
Departing Airport: LEPA
Destination Airport: LPFR
Alternate Airport:LPPT
Online: VATSIM
Route:EPAMA UN733 VLC UM985 YES UN747 VFA Y103 GIMAL
Flight Level:F310
No Slew and time accel
No pause
Crash detect
Detect pilot in Cockpit between each 30 and 45 minutes
15:00 Zero fuel Weight: 410931 Lbs, Fuel Weight: 62627 Lbs
15:00 VATSIM:LEPA 201430Z 23016KT 9999 FEW025 30/18 Q1012 NOSIG
15:00 VATSIM:LPFR 201430Z 25013KT CAVOK 24/18 Q1019
15:01 SUMMER CHARTER
15:02 Parking Brakes off
15:09 Take-off
15:09 Take off Weight: 472034 Lbs
15:09 Wind: 229º @ 016 Knots Heading: 238º
15:09 POS N39º 33´ 13´´ E002º 43´ 28´´
15:09 Gear Up: 202 Knots
15:09 Flaps:3 at 202 Knots
15:11 Flaps:2 at 248 Knots
15:11 Flaps:1 at 249 Knots
15:11 Flaps:3 at 248 Knots
15:11 Flaps:2 at 249 Knots
15:12 Flaps:1 at 250 Knots
15:12 Flaps:0 at 252 Knots
15:21 TOC
15:21 Fuel Weight: 52738 Lb
15:24 Wind:261º@067 Knots Heading: 270º Ground Speed: 430 Knots Altitude 30980 ft
15:39 Wind:286º@102 Knots Heading: 241º Ground Speed: 429 Knots Altitude 31099 ft
15:54 Wind:291º@041 Knots Heading: 260º Ground Speed: 463 Knots Altitude 31115 ft
16:09 Wind:295º@027 Knots Heading: 255º Ground Speed: 480 Knots Altitude 31112 ft
16:15 TOD
16:15 Fuel Weight: 37501 Lb
16:24 Wind:296º@018 Knots Heading: 213º Ground Speed: 370 Knots Altitude 15088 ft
16:26 Flaps:1 at 249 Knots
16:27 Flaps:2 at 242 Knots
16:27 Flaps:3 at 241 Knots
16:30 Flaps:4 at 176 Knots
16:30 Gear Down: 177 Knots
16:30 Flaps:3 at 177 Knots
16:30 Flaps:4 at 177 Knots
16:30 Flaps:5 at 177 Knots
16:30 Flaps:6 at 177 Knots
16:31 Flaps:7 at 174 Knots
16:36 TouchDown:Rate -58 ft/min Speed: 167 Knots
16:37 VATSIM:LPFR 201600Z 26013KT CAVOK 25/16 Q1019
16:37 Land
16:37 Wind:252º@013 Knots
16:37 Heading: 279º
16:37 Flight Duration: 01:28
16:37 Landing Weight: 444320 Lbs
16:37 POS N37º 00´ 57´´ W007º 58´ 34´´
16:39 Parking brakes on
16:39 Block to Block Duration: 01:37
16:39 Final Fuel: 33117 Lbls
16:39 Spent Fuel: 29510 Lbls
16:39 Flight Length: 593 NM
16:39 TOD Land Length: 110 NM

Exportar CSV

Powered by Drupal - Modified by Danger4k